Farm — LBHF — position and weather

sailwx.info

Track history (hours):
 
Tides and Currents Weather Stations Pressure Air Temp Water Temp Dewpoint Dewpoint Depression Visibility Wind Speed Wind Dir Waves Ship Positions

Farm

Last reported at 2014-Dec-09 18:11 UTC. Time now 2014-Dec-20 00:08 UTC.
Position N 69°39' E 018°57'.
Warning: this ship's position is 10 days out of date.

Length 46 m.

Type: Law enforcement. MMSI: 257069200.

Date/timePositionNaut miles runAvg speedWind from/ knotsBaromVisibWave heightAir tempDewpointWater temp
2014-Dec-09 18:11N 69°39' E 018°57'0 0.0
2014-Dec-09 17:31N 69°39' E 018°57'0 0.0
2014-Dec-09 16:31N 69°39' E 018°57'0 0.0
2014-Dec-09 15:31N 69°39' E 018°57'0 0.0
2014-Dec-09 14:31N 69°39' E 018°57'0 0.0
2014-Dec-09 13:31N 69°39' E 018°57'0 0.0
2014-Dec-09 12:31N 69°39' E 018°57'0 0.1
2014-Dec-09 11:33N 69°39' E 018°57'1 1.1
2014-Dec-09 10:33N 69°38' E 018°56'1 0.7
2014-Dec-09 09:33N 69°37' E 018°55'6 0.4
2014-Dec-08 16:33N 69°43' E 018°58'1 0.3
2014-Dec-08 12:03N 69°44' E 019°02'0 0.4
2014-Dec-08 11:29N 69°43' E 019°02'0 0.3
2014-Dec-08 10:21N 69°43' E 019°01'1 1.8
2014-Dec-08 09:33N 69°42' E 019°04'0 0.1
2014-Dec-08 07:32N 69°42' E 019°04'2 1.9
2014-Dec-08 06:32N 69°44' E 019°02'0 0.3
2014-Dec-08 05:33N 69°44' E 019°01'0 0.1
2014-Dec-08 04:23N 69°44' E 019°01'0 0.2
2014-Dec-08 02:28N 69°43' E 019°02'0 0.2
2014-Dec-08 01:33N 69°43' E 019°02'0 0.2
2014-Dec-08 00:33N 69°43' E 019°02'1 1.0
2014-Dec-07 23:33N 69°43' E 019°03'5 5.2
2014-Dec-07 22:34N 69°38' E 018°56'  
2014-Dec-04 23:31N 67°46' E 014°19'1111.2
2014-Dec-04 22:34N 67°35' E 014°21'1212.0
2014-Dec-04 21:33N 67°23' E 014°26'1313.1
2014-Dec-04 20:34N 67°12' E 014°07'1313.0
2014-Dec-04 19:33N 67°02' E 013°48'1211.5
2014-Dec-04 18:33N 66°54' E 013°26'1212.4
2014-Dec-04 17:34N 66°43' E 013°11'1211.8
2014-Dec-04 16:33N 66°32' E 012°58'1212.4
2014-Dec-04 15:34N 66°20' E 012°57'1312.5
2014-Dec-04 14:33N 66°08' E 012°47'1313.2
2014-Dec-04 13:34N 65°58' E 012°27'1312.7
2014-Dec-04 12:34N 65°46' E 012°19'1212.2
2014-Dec-04 11:34N 65°35' E 012°07'1111.3
2014-Dec-04 10:33N 65°24' E 011°58'1010.3
2014-Dec-04 09:33N 65°14' E 011°54'1212.1
2014-Dec-04 08:34N 65°03' E 011°43'1212.0
2014-Dec-04 07:34N 64°54' E 011°22'1312.6
2014-Dec-04 06:34N 64°45' E 011°01'1111.4
2014-Dec-04 05:34N 64°38' E 010°42'1111.2
2014-Dec-04 04:33N 64°29' E 010°26'1310.9
2014-Dec-04 03:24N 64°16' E 010°19'1011.9
2014-Dec-04 02:34N 64°08' E 010°06'10 9.8
2014-Dec-04 01:34N 63°59' E 009°56'1211.6
2014-Dec-04 00:33N 63°51' E 009°39'1212.0
2014-Dec-03 23:34N 63°40' E 009°29'1312.8
2014-Dec-03 22:33N 63°31' E 009°08'1414.0
2014-Dec-03 21:33N 63°25' E 008°39'1414.0
2014-Dec-03 20:33N 63°18' E 008°13'1413.7
2014-Dec-03 19:33N 63°11' E 007°46'1312.9
2014-Dec-03 18:34N 63°04' E 007°22'1312.5
2014-Dec-03 17:33N 62°59' E 006°57'1312.6
2014-Dec-03 16:34N 62°50' E 006°39'1312.9
2014-Dec-03 15:34N 62°39' E 006°24'1212.1
2014-Dec-03 14:34N 62°29' E 006°07'  
Track history (hours):
 
Tides and Currents Weather Stations Pressure Air Temp Water Temp Dewpoint Dewpoint Depression Visibility Wind Speed Wind Dir Waves Ship Positions

Farm

Last reported at 2014-Dec-09 18:11 UTC. Time now 2014-Dec-20 00:08 UTC.
Position N 69°39' E 018°57'.
Warning: this ship's position is 10 days out of date.

Length 46 m.

Type: Law enforcement. MMSI: 257069200.

Date/timePositionNaut miles runAvg speedWind from/ knotsBaromVisibWave heightAir tempDewpointWater temp
2014-Dec-09 18:11N 69°39' E 018°57'0 0.0
2014-Dec-09 17:31N 69°39' E 018°57'0 0.0
2014-Dec-09 16:31N 69°39' E 018°57'0 0.0
2014-Dec-09 15:31N 69°39' E 018°57'0 0.0
2014-Dec-09 14:31N 69°39' E 018°57'0 0.0
2014-Dec-09 13:31N 69°39' E 018°57'0 0.0
2014-Dec-09 12:31N 69°39' E 018°57'0 0.1
2014-Dec-09 11:33N 69°39' E 018°57'1 1.1
2014-Dec-09 10:33N 69°38' E 018°56'1 0.7
2014-Dec-09 09:33N 69°37' E 018°55'6 0.4
2014-Dec-08 16:33N 69°43' E 018°58'1 0.3
2014-Dec-08 12:03N 69°44' E 019°02'0 0.4
2014-Dec-08 11:29N 69°43' E 019°02'0 0.3
2014-Dec-08 10:21N 69°43' E 019°01'1 1.8
2014-Dec-08 09:33N 69°42' E 019°04'0 0.1
2014-Dec-08 07:32N 69°42' E 019°04'2 1.9
2014-Dec-08 06:32N 69°44' E 019°02'0 0.3
2014-Dec-08 05:33N 69°44' E 019°01'0 0.1
2014-Dec-08 04:23N 69°44' E 019°01'0 0.2
2014-Dec-08 02:28N 69°43' E 019°02'0 0.2
2014-Dec-08 01:33N 69°43' E 019°02'0 0.2
2014-Dec-08 00:33N 69°43' E 019°02'1 1.0
2014-Dec-07 23:33N 69°43' E 019°03'5 5.2
2014-Dec-07 22:34N 69°38' E 018°56'  
2014-Dec-04 23:31N 67°46' E 014°19'1111.2
2014-Dec-04 22:34N 67°35' E 014°21'1212.0
2014-Dec-04 21:33N 67°23' E 014°26'1313.1
2014-Dec-04 20:34N 67°12' E 014°07'1313.0
2014-Dec-04 19:33N 67°02' E 013°48'1211.5
2014-Dec-04 18:33N 66°54' E 013°26'1212.4
2014-Dec-04 17:34N 66°43' E 013°11'1211.8
2014-Dec-04 16:33N 66°32' E 012°58'1212.4
2014-Dec-04 15:34N 66°20' E 012°57'1312.5
2014-Dec-04 14:33N 66°08' E 012°47'1313.2
2014-Dec-04 13:34N 65°58' E 012°27'1312.7
2014-Dec-04 12:34N 65°46' E 012°19'1212.2
2014-Dec-04 11:34N 65°35' E 012°07'1111.3
2014-Dec-04 10:33N 65°24' E 011°58'1010.3
2014-Dec-04 09:33N 65°14' E 011°54'1212.1
2014-Dec-04 08:34N 65°03' E 011°43'1212.0
2014-Dec-04 07:34N 64°54' E 011°22'1312.6
2014-Dec-04 06:34N 64°45' E 011°01'1111.4
2014-Dec-04 05:34N 64°38' E 010°42'1111.2
2014-Dec-04 04:33N 64°29' E 010°26'1310.9
2014-Dec-04 03:24N 64°16' E 010°19'1011.9
2014-Dec-04 02:34N 64°08' E 010°06'10 9.8
2014-Dec-04 01:34N 63°59' E 009°56'1211.6
2014-Dec-04 00:33N 63°51' E 009°39'1212.0
2014-Dec-03 23:34N 63°40' E 009°29'1312.8
2014-Dec-03 22:33N 63°31' E 009°08'1414.0
2014-Dec-03 21:33N 63°25' E 008°39'1414.0
2014-Dec-03 20:33N 63°18' E 008°13'1413.7
2014-Dec-03 19:33N 63°11' E 007°46'1312.9
2014-Dec-03 18:34N 63°04' E 007°22'1312.5
2014-Dec-03 17:33N 62°59' E 006°57'1312.6
2014-Dec-03 16:34N 62°50' E 006°39'1312.9
2014-Dec-03 15:34N 62°39' E 006°24'1212.1
2014-Dec-03 14:34N 62°29' E 006°07'  

Dump ship's entire track history